sensor_id;sensor_type;location;lat;lon;timestamp;pressure;altitude;pressure_sealevel;temperature;humidity
23733;BME280;12047;53.450;-2.286;2023-04-27T00:01:22;101514.59;;;13.29;87.35
23733;BME280;12047;53.450;-2.286;2023-04-27T00:06:23;101505.56;;;13.70;87.54
23733;BME280;12047;53.450;-2.286;2023-04-27T00:11:23;101495.16;;;13.67;87.83
23733;BME280;12047;53.450;-2.286;2023-04-27T00:16:24;101488.56;;;13.12;91.45
23733;BME280;12047;53.450;-2.286;2023-04-27T00:21:25;101493.53;;;13.16;92.02
23733;BME280;12047;53.450;-2.286;2023-04-27T00:26:26;101492.47;;;13.28;93.16
23733;BME280;12047;53.450;-2.286;2023-04-27T00:31:26;101487.09;;;12.88;97.39
23733;BME280;12047;53.450;-2.286;2023-04-27T00:36:26;101476.19;;;12.82;98.63
23733;BME280;12047;53.450;-2.286;2023-04-27T00:41:27;101467.88;;;12.75;99.75
23733;BME280;12047;53.450;-2.286;2023-04-27T00:46:28;101462.94;;;13.01;100.00
23733;BME280;12047;53.450;-2.286;2023-04-27T00:51:28;101471.56;;;13.24;99.62
23733;BME280;12047;53.450;-2.286;2023-04-27T00:56:30;101455.94;;;12.70;100.00
23733;BME280;12047;53.450;-2.286;2023-04-27T01:01:31;101454.69;;;13.04;100.00
23733;BME280;12047;53.450;-2.286;2023-04-27T01:06:31;101444.00;;;12.94;100.00
23733;BME280;12047;53.450;-2.286;2023-04-27T01:11:32;101451.94;;;13.15;100.00
23733;BME280;12047;53.450;-2.286;2023-04-27T01:16:33;101448.25;;;13.07;99.61
23733;BME280;12047;53.450;-2.286;2023-04-27T01:21:34;101449.06;;;12.98;100.00
23733;BME280;12047;53.450;-2.286;2023-04-27T01:26:34;101450.59;;;13.31;99.46
23733;BME280;12047;53.450;-2.286;2023-04-27T01:31:35;101459.47;;;13.10;99.48
23733;BME280;12047;53.450;-2.286;2023-04-27T01:36:35;101459.81;;;12.86;100.00
23733;BME280;12047;53.450;-2.286;2023-04-27T01:41:36;101460.28;;;13.01;100.00
23733;BME280;12047;53.450;-2.286;2023-04-27T01:46:36;101461.78;;;13.24;100.00
23733;BME280;12047;53.450;-2.286;2023-04-27T01:51:37;101463.72;;;13.22;100.00
23733;BME280;12047;53.450;-2.286;2023-04-27T01:56:37;101468.47;;;13.19;100.00
23733;BME280;12047;53.450;-2.286;2023-04-27T02:01:38;101469.34;;;13.29;100.00
23733;BME280;12047;53.450;-2.286;2023-04-27T02:06:38;101460.94;;;12.93;100.00
23733;BME280;12047;53.450;-2.286;2023-04-27T02:11:39;101457.56;;;12.91;100.00
23733;BME280;12047;53.450;-2.286;2023-04-27T02:16:39;101451.41;;;13.41;100.00
23733;BME280;12047;53.450;-2.286;2023-04-27T02:21:40;101447.19;;;13.19;100.00
23733;BME280;12047;53.450;-2.286;2023-04-27T02:26:40;101439.69;;;13.13;100.00
23733;BME280;12047;53.450;-2.286;2023-04-27T02:31:41;101433.94;;;12.98;100.00
23733;BME280;12047;53.450;-2.286;2023-04-27T02:36:41;101431.72;;;13.03;100.00
23733;BME280;12047;53.450;-2.286;2023-04-27T02:41:42;101429.81;;;12.75;100.00
23733;BME280;12047;53.450;-2.286;2023-04-27T02:46:42;101429.78;;;13.15;100.00
23733;BME280;12047;53.450;-2.286;2023-04-27T02:51:43;101423.91;;;12.71;100.00
23733;BME280;12047;53.450;-2.286;2023-04-27T02:56:43;101425.13;;;12.98;100.00
23733;BME280;12047;53.450;-2.286;2023-04-27T03:01:43;101416.22;;;13.18;100.00
23733;BME280;12047;53.450;-2.286;2023-04-27T03:06:44;101403.50;;;13.21;100.00
23733;BME280;12047;53.450;-2.286;2023-04-27T03:11:44;101394.00;;;12.88;100.00
23733;BME280;12047;53.450;-2.286;2023-04-27T03:16:45;101397.00;;;13.14;100.00
23733;BME280;12047;53.450;-2.286;2023-04-27T03:21:46;101390.41;;;12.99;100.00
23733;BME280;12047;53.450;-2.286;2023-04-27T03:26:46;101396.22;;;13.23;100.00
23733;BME280;12047;53.450;-2.286;2023-04-27T03:31:47;101398.38;;;12.99;100.00
23733;BME280;12047;53.450;-2.286;2023-04-27T03:36:47;101392.78;;;13.02;100.00
23733;BME280;12047;53.450;-2.286;2023-04-27T03:41:48;101389.00;;;12.95;100.00
23733;BME280;12047;53.450;-2.286;2023-04-27T03:46:48;101378.00;;;13.28;100.00
23733;BME280;12047;53.450;-2.286;2023-04-27T03:51:49;101378.50;;;13.13;100.00
23733;BME280;12047;53.450;-2.286;2023-04-27T03:56:49;101373.50;;;13.10;100.00
23733;BME280;12047;53.450;-2.286;2023-04-27T04:01:50;101365.53;;;13.58;98.95
23733;BME280;12047;53.450;-2.286;2023-04-27T04:06:50;101364.97;;;13.16;100.00
23733;BME280;12047;53.450;-2.286;2023-04-27T04:11:51;101367.63;;;13.16;100.00
23733;BME280;12047;53.450;-2.286;2023-04-27T04:16:53;101364.91;;;12.97;100.00
23733;BME280;12047;53.450;-2.286;2023-04-27T04:21:53;101364.09;;;13.06;100.00
23733;BME280;12047;53.450;-2.286;2023-04-27T04:26:56;101365.53;;;13.19;100.00
23733;BME280;12047;53.450;-2.286;2023-04-27T04:31:57;101357.56;;;13.29;100.00
23733;BME280;12047;53.450;-2.286;2023-04-27T04:36:58;101358.13;;;13.33;100.00
23733;BME280;12047;53.450;-2.286;2023-04-27T04:41:58;101356.69;;;13.67;99.15
23733;BME280;12047;53.450;-2.286;2023-04-27T04:46:59;101359.81;;;13.34;100.00
23733;BME280;12047;53.450;-2.286;2023-04-27T04:51:59;101357.47;;;13.87;98.97
23733;BME280;12047;53.450;-2.286;2023-04-27T04:57:00;101365.78;;;13.65;99.41
23733;BME280;12047;53.450;-2.286;2023-04-27T05:02:02;101361.06;;;13.58;98.64
23733;BME280;12047;53.450;-2.286;2023-04-27T05:07:03;101364.38;;;13.12;100.00
23733;BME280;12047;53.450;-2.286;2023-04-27T05:12:05;101358.66;;;13.17;100.00
23733;BME280;12047;53.450;-2.286;2023-04-27T05:17:06;101362.34;;;13.35;100.00
23733;BME280;12047;53.450;-2.286;2023-04-27T05:22:07;101359.50;;;13.17;100.00
23733;BME280;12047;53.450;-2.286;2023-04-27T05:27:07;101357.91;;;13.15;100.00
23733;BME280;12047;53.450;-2.286;2023-04-27T05:32:08;101348.03;;;13.46;100.00
23733;BME280;12047;53.450;-2.286;2023-04-27T05:37:08;101333.44;;;13.11;100.00
23733;BME280;12047;53.450;-2.286;2023-04-27T05:42:09;101337.91;;;13.11;100.00
23733;BME280;12047;53.450;-2.286;2023-04-27T05:47:09;101331.66;;;13.31;100.00
23733;BME280;12047;53.450;-2.286;2023-04-27T05:52:10;101328.19;;;13.87;99.41
23733;BME280;12047;53.450;-2.286;2023-04-27T05:57:10;101328.00;;;13.22;100.00
23733;BME280;12047;53.450;-2.286;2023-04-27T06:02:10;101314.56;;;13.24;100.00
23733;BME280;12047;53.450;-2.286;2023-04-27T06:07:12;101312.72;;;13.44;100.00
23733;BME280;12047;53.450;-2.286;2023-04-27T06:12:13;101313.56;;;13.54;99.48
23733;BME280;12047;53.450;-2.286;2023-04-27T06:17:14;101317.31;;;13.61;99.14
23733;BME280;12047;53.450;-2.286;2023-04-27T06:22:14;101326.59;;;13.57;98.82
23733;BME280;12047;53.450;-2.286;2023-04-27T06:27:14;101323.47;;;14.18;96.65
23733;BME280;12047;53.450;-2.286;2023-04-27T06:32:15;101325.41;;;13.79;97.54
23733;BME280;12047;53.450;-2.286;2023-04-27T06:37:16;101327.09;;;13.80;96.95
23733;BME280;12047;53.450;-2.286;2023-04-27T06:42:16;101322.03;;;14.23;95.01
23733;BME280;12047;53.450;-2.286;2023-04-27T06:47:17;101325.47;;;14.06;94.07
23733;BME280;12047;53.450;-2.286;2023-04-27T06:52:17;101317.88;;;14.39;94.76
23733;BME280;12047;53.450;-2.286;2023-04-27T06:57:18;101312.00;;;14.90;92.49
23733;BME280;12047;53.450;-2.286;2023-04-27T07:02:18;101302.09;;;13.90;94.76
23733;BME280;12047;53.450;-2.286;2023-04-27T07:07:19;101302.91;;;14.65;93.42
23733;BME280;12047;53.450;-2.286;2023-04-27T07:12:20;101298.59;;;14.82;92.40
23733;BME280;12047;53.450;-2.286;2023-04-27T07:17:20;101298.91;;;14.14;92.86
23733;BME280;12047;53.450;-2.286;2023-04-27T07:22:21;101306.63;;;14.54;92.05
23733;BME280;12047;53.450;-2.286;2023-04-27T07:27:21;101312.47;;;15.21;90.44
23733;BME280;12047;53.450;-2.286;2023-04-27T07:32:21;101320.47;;;15.03;90.69
23733;BME280;12047;53.450;-2.286;2023-04-27T07:37:22;101325.59;;;14.96;91.65
23733;BME280;12047;53.450;-2.286;2023-04-27T07:42:23;101325.50;;;14.88;90.85
23733;BME280;12047;53.450;-2.286;2023-04-27T07:47:24;101324.44;;;14.81;90.15
23733;BME280;12047;53.450;-2.286;2023-04-27T07:52:24;101316.66;;;15.59;88.87
23733;BME280;12047;53.450;-2.286;2023-04-27T07:57:25;101310.66;;;15.04;90.44
23733;BME280;12047;53.450;-2.286;2023-04-27T08:02:26;101305.53;;;15.97;87.81
23733;BME280;12047;53.450;-2.286;2023-04-27T08:07:30;101295.50;;;16.25;86.69
23733;BME280;12047;53.450;-2.286;2023-04-27T08:12:31;101283.38;;;16.05;86.26
23733;BME280;12047;53.450;-2.286;2023-04-27T08:17:32;101287.44;;;16.17;84.43
23733;BME280;12047;53.450;-2.286;2023-04-27T08:22:33;101282.13;;;16.25;84.59
23733;BME280;12047;53.450;-2.286;2023-04-27T08:27:37;101282.63;;;16.71;84.47
23733;BME280;12047;53.450;-2.286;2023-04-27T08:32:38;101253.72;;;16.99;82.59
23733;BME280;12047;53.450;-2.286;2023-04-27T08:37:39;101251.47;;;16.62;82.03
23733;BME280;12047;53.450;-2.286;2023-04-27T08:42:51;101239.13;;;17.42;80.42
23733;BME280;12047;53.450;-2.286;2023-04-27T08:47:52;101222.63;;;17.86;78.36
23733;BME280;12047;53.450;-2.286;2023-04-27T08:52:53;101231.63;;;17.13;79.72
23733;BME280;12047;53.450;-2.286;2023-04-27T08:57:56;101233.81;;;17.02;78.96
23733;BME280;12047;53.450;-2.286;2023-04-27T09:02:57;101225.28;;;17.06;77.20
23733;BME280;12047;53.450;-2.286;2023-04-27T09:07:59;101227.09;;;16.89;78.55
23733;BME280;12047;53.450;-2.286;2023-04-27T09:13:00;101228.63;;;17.00;79.60
23733;BME280;12047;53.450;-2.286;2023-04-27T09:18:01;101222.97;;;17.91;78.70
23733;BME280;12047;53.450;-2.286;2023-04-27T09:23:01;101226.41;;;17.44;78.86
23733;BME280;12047;53.450;-2.286;2023-04-27T09:28:02;101222.44;;;17.24;78.25
23733;BME280;12047;53.450;-2.286;2023-04-27T09:33:02;101218.38;;;18.08;77.84
23733;BME280;12047;53.450;-2.286;2023-04-27T09:38:03;101215.13;;;18.20;77.52
23733;BME280;12047;53.450;-2.286;2023-04-27T09:43:05;101210.03;;;17.23;76.93
23733;BME280;12047;53.450;-2.286;2023-04-27T09:48:06;101213.91;;;18.00;74.30
23733;BME280;12047;53.450;-2.286;2023-04-27T09:53:13;101196.06;;;18.92;73.13
23733;BME280;12047;53.450;-2.286;2023-04-27T10:03:46;101200.09;;;18.42;73.24
23733;BME280;12047;53.450;-2.286;2023-04-27T10:08:49;101204.84;;;18.63;72.29
23733;BME280;12047;53.450;-2.286;2023-04-27T10:13:52;101202.41;;;18.76;72.01
23733;BME280;12047;53.450;-2.286;2023-04-27T10:18:54;101199.91;;;18.13;73.80
23733;BME280;12047;53.450;-2.286;2023-04-27T10:23:54;101193.19;;;18.48;73.34
23733;BME280;12047;53.450;-2.286;2023-04-27T10:34:09;101168.03;;;17.87;75.21
23733;BME280;12047;53.450;-2.286;2023-04-27T10:39:20;101161.97;;;17.93;74.90
23733;BME280;12047;53.450;-2.286;2023-04-27T10:44:26;101169.22;;;18.15;74.50
23733;BME280;12047;53.450;-2.286;2023-04-27T10:49:28;101159.88;;;18.34;75.05
23733;BME280;12047;53.450;-2.286;2023-04-27T10:54:30;101171.84;;;17.92;74.04
23733;BME280;12047;53.450;-2.286;2023-04-27T10:59:31;101152.28;;;18.46;72.48
23733;BME280;12047;53.450;-2.286;2023-04-27T11:04:36;101157.84;;;18.36;74.60
23733;BME280;12047;53.450;-2.286;2023-04-27T11:09:38;101140.09;;;18.58;72.03
23733;BME280;12047;53.450;-2.286;2023-04-27T11:14:41;101130.06;;;18.97;72.46
23733;BME280;12047;53.450;-2.286;2023-04-27T11:19:46;101125.53;;;18.98;71.11
23733;BME280;12047;53.450;-2.286;2023-04-27T11:24:51;101112.50;;;18.26;72.13
23733;BME280;12047;53.450;-2.286;2023-04-27T11:29:51;101123.16;;;17.81;71.73
23733;BME280;12047;53.450;-2.286;2023-04-27T11:34:53;101119.84;;;17.71;72.89
23733;BME280;12047;53.450;-2.286;2023-04-27T11:39:54;101106.38;;;18.10;72.90
23733;BME280;12047;53.450;-2.286;2023-04-27T11:44:57;101096.78;;;18.84;71.08
23733;BME280;12047;53.450;-2.286;2023-04-27T11:49:59;101091.03;;;18.49;70.92
23733;BME280;12047;53.450;-2.286;2023-04-27T11:55:00;101090.25;;;18.41;70.23
23733;BME280;12047;53.450;-2.286;2023-04-27T12:00:04;101069.81;;;18.62;70.45
23733;BME280;12047;53.450;-2.286;2023-04-27T12:05:12;101066.06;;;18.03;72.09
23733;BME280;12047;53.450;-2.286;2023-04-27T12:10:13;101064.09;;;17.97;71.64
23733;BME280;12047;53.450;-2.286;2023-04-27T12:15:13;101068.19;;;18.53;70.75
23733;BME280;12047;53.450;-2.286;2023-04-27T12:20:14;101065.16;;;18.33;71.25
23733;BME280;12047;53.450;-2.286;2023-04-27T12:25:14;101071.44;;;17.64;72.55
23733;BME280;12047;53.450;-2.286;2023-04-27T12:30:16;101055.56;;;17.93;72.29
23733;BME280;12047;53.450;-2.286;2023-04-27T12:35:17;101049.69;;;18.58;71.26
23733;BME280;12047;53.450;-2.286;2023-04-27T12:40:18;101058.75;;;18.57;70.66
23733;BME280;12047;53.450;-2.286;2023-04-27T12:45:18;101048.66;;;17.99;71.48
23733;BME280;12047;53.450;-2.286;2023-04-27T12:50:19;101048.06;;;18.12;71.91
23733;BME280;12047;53.450;-2.286;2023-04-27T12:55:20;101044.94;;;17.77;73.13
23733;BME280;12047;53.450;-2.286;2023-04-27T13:00:20;101044.78;;;18.24;71.87
23733;BME280;12047;53.450;-2.286;2023-04-27T13:05:21;101048.03;;;18.34;72.43
23733;BME280;12047;53.450;-2.286;2023-04-27T13:10:21;101037.44;;;17.95;72.30
23733;BME280;12047;53.450;-2.286;2023-04-27T13:15:22;101039.84;;;18.13;71.73
23733;BME280;12047;53.450;-2.286;2023-04-27T13:20:22;101034.63;;;17.66;71.40
23733;BME280;12047;53.450;-2.286;2023-04-27T13:25:24;101034.09;;;17.71;71.38
23733;BME280;12047;53.450;-2.286;2023-04-27T13:30:25;101035.91;;;18.01;71.23
23733;BME280;12047;53.450;-2.286;2023-04-27T13:35:26;101034.59;;;18.20;71.83
23733;BME280;12047;53.450;-2.286;2023-04-27T13:40:27;101036.91;;;18.23;71.75
23733;BME280;12047;53.450;-2.286;2023-04-27T13:45:28;101033.03;;;17.80;73.27
23733;BME280;12047;53.450;-2.286;2023-04-27T13:50:28;101020.56;;;17.87;73.25
23733;BME280;12047;53.450;-2.286;2023-04-27T13:55:29;101017.91;;;18.10;73.91
23733;BME280;12047;53.450;-2.286;2023-04-27T14:00:30;101016.91;;;17.57;73.01
23733;BME280;12047;53.450;-2.286;2023-04-27T14:05:33;101010.03;;;18.08;72.21
23733;BME280;12047;53.450;-2.286;2023-04-27T14:10:35;101007.34;;;18.08;72.59
23733;BME280;12047;53.450;-2.286;2023-04-27T14:15:36;101000.72;;;18.56;72.44
23733;BME280;12047;53.450;-2.286;2023-04-27T14:20:37;100993.00;;;18.24;73.14
23733;BME280;12047;53.450;-2.286;2023-04-27T14:25:41;100993.00;;;18.24;73.11
23733;BME280;12047;53.450;-2.286;2023-04-27T14:30:42;100991.47;;;18.44;72.11
23733;BME280;12047;53.450;-2.286;2023-04-27T14:35:42;100985.72;;;18.10;78.97
23733;BME280;12047;53.450;-2.286;2023-04-27T14:40:42;100980.31;;;17.95;79.89
23733;BME280;12047;53.450;-2.286;2023-04-27T14:45:43;100968.84;;;18.24;77.39
23733;BME280;12047;53.450;-2.286;2023-04-27T14:50:44;100985.78;;;18.62;78.35
23733;BME280;12047;53.450;-2.286;2023-04-27T14:55:44;100986.16;;;18.36;77.09
23733;BME280;12047;53.450;-2.286;2023-04-27T15:00:45;100979.06;;;18.58;76.50
23733;BME280;12047;53.450;-2.286;2023-04-27T15:05:46;100968.88;;;18.39;75.39
23733;BME280;12047;53.450;-2.286;2023-04-27T15:10:46;100963.88;;;17.98;76.08
23733;BME280;12047;53.450;-2.286;2023-04-27T15:15:47;100963.44;;;18.47;75.30
23733;BME280;12047;53.450;-2.286;2023-04-27T15:20:51;100953.28;;;18.05;75.76
23733;BME280;12047;53.450;-2.286;2023-04-27T15:25:56;100946.97;;;18.50;75.61
23733;BME280;12047;53.450;-2.286;2023-04-27T15:30:57;100946.75;;;18.22;76.67
23733;BME280;12047;53.450;-2.286;2023-04-27T15:35:58;100945.09;;;18.35;76.21
23733;BME280;12047;53.450;-2.286;2023-04-27T15:40:58;100940.44;;;18.15;77.38
23733;BME280;12047;53.450;-2.286;2023-04-27T15:46:02;100942.50;;;18.42;77.12
23733;BME280;12047;53.450;-2.286;2023-04-27T15:51:02;100944.28;;;18.50;80.02
23733;BME280;12047;53.450;-2.286;2023-04-27T15:56:05;100937.31;;;17.65;92.55
23733;BME280;12047;53.450;-2.286;2023-04-27T16:01:06;100932.66;;;16.97;100.00
23733;BME280;12047;53.450;-2.286;2023-04-27T16:06:06;100929.41;;;17.64;100.00
23733;BME280;12047;53.450;-2.286;2023-04-27T16:11:07;100923.91;;;17.65;100.00
23733;BME280;12047;53.450;-2.286;2023-04-27T16:16:07;100921.06;;;17.36;100.00
23733;BME280;12047;53.450;-2.286;2023-04-27T16:21:08;100910.41;;;16.42;100.00
23733;BME280;12047;53.450;-2.286;2023-04-27T16:26:08;100906.72;;;16.43;100.00
23733;BME280;12047;53.450;-2.286;2023-04-27T16:31:09;100893.00;;;16.46;100.00
23733;BME280;12047;53.450;-2.286;2023-04-27T16:36:11;100890.53;;;16.91;100.00
23733;BME280;12047;53.450;-2.286;2023-04-27T16:41:11;100876.69;;;17.11;100.00
23733;BME280;12047;53.450;-2.286;2023-04-27T16:46:12;100866.75;;;16.49;100.00
23733;BME280;12047;53.450;-2.286;2023-04-27T16:51:13;100859.22;;;15.65;100.00
23733;BME280;12047;53.450;-2.286;2023-04-27T16:56:14;100839.31;;;16.00;100.00
23733;BME280;12047;53.450;-2.286;2023-04-27T17:01:14;100834.31;;;16.52;100.00
23733;BME280;12047;53.450;-2.286;2023-04-27T17:06:15;100835.59;;;16.25;100.00
23733;BME280;12047;53.450;-2.286;2023-04-27T17:11:15;100830.66;;;15.90;100.00
23733;BME280;12047;53.450;-2.286;2023-04-27T17:16:17;100824.13;;;15.84;100.00
23733;BME280;12047;53.450;-2.286;2023-04-27T17:21:17;100819.06;;;16.61;100.00
23733;BME280;12047;53.450;-2.286;2023-04-27T17:26:18;100810.75;;;16.87;100.00
23733;BME280;12047;53.450;-2.286;2023-04-27T17:31:20;100818.75;;;16.56;100.00
23733;BME280;12047;53.450;-2.286;2023-04-27T17:36:21;100800.09;;;16.40;100.00
23733;BME280;12047;53.450;-2.286;2023-04-27T17:41:21;100808.28;;;15.42;100.00
23733;BME280;12047;53.450;-2.286;2023-04-27T17:46:22;100796.09;;;15.48;100.00
23733;BME280;12047;53.450;-2.286;2023-04-27T17:51:22;100784.25;;;15.75;100.00
23733;BME280;12047;53.450;-2.286;2023-04-27T17:56:22;100774.41;;;16.30;100.00
23733;BME280;12047;53.450;-2.286;2023-04-27T18:01:23;100770.56;;;15.37;100.00
23733;BME280;12047;53.450;-2.286;2023-04-27T18:06:23;100760.25;;;15.34;100.00
23733;BME280;12047;53.450;-2.286;2023-04-27T18:11:24;100759.88;;;15.70;100.00
23733;BME280;12047;53.450;-2.286;2023-04-27T18:16:25;100749.88;;;15.63;100.00
23733;BME280;12047;53.450;-2.286;2023-04-27T18:21:25;100745.19;;;15.41;100.00
23733;BME280;12047;53.450;-2.286;2023-04-27T18:26:29;100738.03;;;15.42;100.00
23733;BME280;12047;53.450;-2.286;2023-04-27T18:31:29;100738.22;;;15.24;100.00
23733;BME280;12047;53.450;-2.286;2023-04-27T18:36:30;100729.34;;;15.40;100.00
23733;BME280;12047;53.450;-2.286;2023-04-27T18:41:58;100731.84;;;15.41;100.00
23733;BME280;12047;53.450;-2.286;2023-04-27T18:47:29;100722.72;;;16.07;100.00
23733;BME280;12047;53.450;-2.286;2023-04-27T18:52:33;100721.75;;;15.92;100.00
23733;BME280;12047;53.450;-2.286;2023-04-27T18:57:43;100722.66;;;15.36;100.00
23733;BME280;12047;53.450;-2.286;2023-04-27T19:02:59;100723.50;;;15.60;100.00
23733;BME280;12047;53.450;-2.286;2023-04-27T19:08:05;100723.22;;;15.31;100.00
23733;BME280;12047;53.450;-2.286;2023-04-27T19:13:06;100719.19;;;15.27;100.00
23733;BME280;12047;53.450;-2.286;2023-04-27T19:18:06;100713.00;;;15.43;100.00
23733;BME280;12047;53.450;-2.286;2023-04-27T19:23:08;100705.69;;;15.12;100.00
23733;BME280;12047;53.450;-2.286;2023-04-27T19:28:11;100712.19;;;15.02;100.00
23733;BME280;12047;53.450;-2.286;2023-04-27T19:33:13;100713.38;;;15.07;100.00
23733;BME280;12047;53.450;-2.286;2023-04-27T19:38:14;100706.19;;;15.00;100.00
23733;BME280;12047;53.450;-2.286;2023-04-27T19:43:14;100710.69;;;14.99;100.00
23733;BME280;12047;53.450;-2.286;2023-04-27T19:48:15;100708.19;;;15.22;100.00
23733;BME280;12047;53.450;-2.286;2023-04-27T19:53:15;100713.19;;;15.01;100.00
23733;BME280;12047;53.450;-2.286;2023-04-27T19:58:16;100708.13;;;15.62;100.00
23733;BME280;12047;53.450;-2.286;2023-04-27T20:03:17;100708.19;;;14.97;100.00
23733;BME280;12047;53.450;-2.286;2023-04-27T20:08:19;100695.53;;;15.00;100.00
23733;BME280;12047;53.450;-2.286;2023-04-27T20:13:19;100710.19;;;15.20;100.00
23733;BME280;12047;53.450;-2.286;2023-04-27T20:18:20;100705.84;;;14.94;100.00
23733;BME280;12047;53.450;-2.286;2023-04-27T20:23:20;100694.19;;;14.79;100.00
23733;BME280;12047;53.450;-2.286;2023-04-27T20:28:21;100679.66;;;14.74;100.00
23733;BME280;12047;53.450;-2.286;2023-04-27T20:33:21;100689.78;;;14.46;100.00
23733;BME280;12047;53.450;-2.286;2023-04-27T20:38:22;100683.50;;;14.71;100.00
23733;BME280;12047;53.450;-2.286;2023-04-27T20:43:23;100683.72;;;14.36;100.00
23733;BME280;12047;53.450;-2.286;2023-04-27T20:48:23;100683.19;;;14.82;100.00
23733;BME280;12047;53.450;-2.286;2023-04-27T20:53:27;100673.50;;;14.89;100.00
23733;BME280;12047;53.450;-2.286;2023-04-27T20:58:28;100684.63;;;14.44;100.00
23733;BME280;12047;53.450;-2.286;2023-04-27T21:03:28;100681.34;;;14.58;100.00
23733;BME280;12047;53.450;-2.286;2023-04-27T21:08:29;100677.31;;;14.54;100.00
23733;BME280;12047;53.450;-2.286;2023-04-27T21:13:29;100686.16;;;14.71;100.00
23733;BME280;12047;53.450;-2.286;2023-04-27T21:18:30;100672.81;;;14.63;100.00
23733;BME280;12047;53.450;-2.286;2023-04-27T21:23:34;100661.50;;;14.53;100.00
23733;BME280;12047;53.450;-2.286;2023-04-27T21:28:34;100648.50;;;14.74;100.00
23733;BME280;12047;53.450;-2.286;2023-04-27T21:33:36;100642.13;;;14.43;100.00
23733;BME280;12047;53.450;-2.286;2023-04-27T21:38:36;100632.81;;;14.71;100.00
23733;BME280;12047;53.450;-2.286;2023-04-27T21:43:37;100642.00;;;14.77;100.00
23733;BME280;12047;53.450;-2.286;2023-04-27T21:48:41;100642.47;;;14.48;100.00
23733;BME280;12047;53.450;-2.286;2023-04-27T21:53:41;100629.38;;;14.12;100.00
23733;BME280;12047;53.450;-2.286;2023-04-27T21:58:42;100618.81;;;14.53;100.00
23733;BME280;12047;53.450;-2.286;2023-04-27T22:03:42;100615.66;;;13.83;100.00
23733;BME280;12047;53.450;-2.286;2023-04-27T22:08:43;100611.72;;;14.03;100.00
23733;BME280;12047;53.450;-2.286;2023-04-27T22:13:43;100604.97;;;13.75;100.00
23733;BME280;12047;53.450;-2.286;2023-04-27T22:18:44;100601.97;;;14.60;100.00
23733;BME280;12047;53.450;-2.286;2023-04-27T22:23:46;100607.31;;;13.78;100.00
23733;BME280;12047;53.450;-2.286;2023-04-27T22:28:49;100598.97;;;13.73;100.00
23733;BME280;12047;53.450;-2.286;2023-04-27T22:33:50;100587.44;;;14.22;100.00
23733;BME280;12047;53.450;-2.286;2023-04-27T22:38:51;100585.16;;;14.68;100.00
23733;BME280;12047;53.450;-2.286;2023-04-27T22:43:51;100574.47;;;14.27;100.00
23733;BME280;12047;53.450;-2.286;2023-04-27T22:48:52;100579.66;;;14.45;100.00
23733;BME280;12047;53.450;-2.286;2023-04-27T22:53:53;100565.97;;;14.32;100.00
23733;BME280;12047;53.450;-2.286;2023-04-27T22:58:53;100566.53;;;13.35;100.00
23733;BME280;12047;53.450;-2.286;2023-04-27T23:03:54;100558.75;;;14.00;100.00
23733;BME280;12047;53.450;-2.286;2023-04-27T23:08:54;100561.59;;;13.99;100.00
23733;BME280;12047;53.450;-2.286;2023-04-27T23:13:55;100557.28;;;14.38;100.00
23733;BME280;12047;53.450;-2.286;2023-04-27T23:18:56;100568.50;;;14.58;100.00
23733;BME280;12047;53.450;-2.286;2023-04-27T23:23:57;100563.16;;;14.42;100.00
23733;BME280;12047;53.450;-2.286;2023-04-27T23:28:57;100559.34;;;14.52;100.00
23733;BME280;12047;53.450;-2.286;2023-04-27T23:33:58;100565.66;;;14.43;100.00
23733;BME280;12047;53.450;-2.286;2023-04-27T23:39:00;100551.63;;;14.25;100.00
23733;BME280;12047;53.450;-2.286;2023-04-27T23:44:00;100560.94;;;14.05;100.00
23733;BME280;12047;53.450;-2.286;2023-04-27T23:49:01;100546.31;;;14.25;100.00
23733;BME280;12047;53.450;-2.286;2023-04-27T23:54:02;100550.09;;;14.95;100.00
23733;BME280;12047;53.450;-2.286;2023-04-27T23:59:02;100543.53;;;13.68;100.00
